Cape May County Airport Wildwood US
ICAO: KWWD
IATA: WWD
Category: Medium
Scheduled Services: No

Elevation: 23 ft
TransAlt. 18000 ft.

Airport Communications:
APP/DEP:124.6
AWOS 3:118.275
CLNC DEL:121.7
CTAF/UNICOM:122.7

KWWD Zoom In..

If you have problems with the map follow the link
https://www.worldairports.se/pages/airport.php?
ICAO=KWWD

Runways:

(A) RW 01 length 5003 ft width 150 ft
LOC 108.90 / hdg 10

(B) RW 10 length 4998 ft width 150 ft
LOC 108.90 / hdg 100

(C) RW 19 length 5003 ft width 150 ft
LOC 108.90 / hdg 190

(D) RW 28 length 4998 ft width 150 ft
LOC 108.90 / hdg 280

Location; KWWD
Day. 06 / Time. 02.56 Zulu
* Altimeter: 30.14
* Temperature: 06° c. 42.8°f.
* Wind from: 280° Speed 09 kn.
Dewpoint: -03° c.
Visibility: 10 Statute Miles.
Clouds: Clear (automated report).

KWWD 060256Z AUTO 28009KT 10SM CLR 06/M03 A3014 RMK AO2 SLP209 T00561033 51018


Wind From 280°
Speed 09 kn.

 
 
jpsmedia worldairports.se 2019   terms of use